Time,TemperatureF,DewpointF,PressureIn,WindDirection,WindDirectionDegrees,WindSpeedMPH,WindSpeedGustMPH,Humidity,HourlyPrecipIn,Conditions,Clouds,dailyrainin,SolarRadiationWatts/m^2,SoftwareType,DateUTC
2013-09-01 00:12:00,57.0,41.0,-100.00,NW,324,7.0,8.0,54,0.00,,,0.00,0.000000,,2013-09-01 07:12:00,
2013-09-01 00:22:00,57.0,41.0,-100.00,NW,324,7.0,8.0,54,0.00,,,0.00,0.000000,,2013-09-01 07:22:00,
2013-09-01 00:32:00,57.0,41.0,-100.00,NW,324,7.0,8.0,54,0.00,,,0.00,0.000000,,2013-09-01 07:32:00,
2013-09-01 00:42:00,57.0,41.0,-100.00,NW,324,7.0,8.0,54,0.00,,,0.00,0.000000,,2013-09-01 07:42:00,
2013-09-01 01:11:00,59.0,42.0,-100.00,NNW,327,6.0,8.0,54,0.00,,,0.00,0.000000,,2013-09-01 08:11:00,
2013-09-01 01:22:00,59.0,42.0,-100.00,NNW,327,6.0,8.0,54,0.00,,,0.00,0.000000,,2013-09-01 08:22:00,
2013-09-01 01:32:00,59.0,42.0,-100.00,NNW,327,6.0,8.0,54,0.00,,,0.00,0.000000,,2013-09-01 08:32:00,
2013-09-01 01:43:00,59.0,42.0,-100.00,NNW,327,6.0,8.0,54,0.00,,,0.00,0.000000,,2013-09-01 08:43:00,
2013-09-01 02:11:00,55.0,41.0,-100.00,NW,315,8.0,9.0,59,0.00,,,0.00,0.000000,,2013-09-01 09:11:00,
2013-09-01 02:21:00,55.0,41.0,-100.00,NW,315,8.0,9.0,59,0.00,,,0.00,0.000000,,2013-09-01 09:21:00,
2013-09-01 02:33:00,55.0,41.0,-100.00,NW,315,8.0,9.0,59,0.00,,,0.00,0.000000,,2013-09-01 09:33:00,
2013-09-01 02:43:00,55.0,41.0,-100.00,NW,315,8.0,9.0,59,0.00,,,0.00,0.000000,,2013-09-01 09:43:00,
2013-09-01 03:12:00,55.0,41.0,-100.00,NW,319,6.0,10.0,60,0.00,,,-99.99,0.000000,,2013-09-01 10:12:00,
2013-09-01 03:23:00,55.0,41.0,-100.00,NW,319,6.0,10.0,60,0.00,,,-99.99,0.000000,,2013-09-01 10:23:00,
2013-09-01 03:33:00,55.0,41.0,-100.00,NW,319,6.0,10.0,60,0.00,,,-99.99,0.000000,,2013-09-01 10:33:00,
2013-09-01 03:42:00,55.0,41.0,-100.00,NW,319,6.0,10.0,60,0.00,,,-99.99,0.000000,,2013-09-01 10:42:00,
2013-09-01 04:12:00,55.0,43.0,-100.00,NW,316,7.0,9.0,65,0.00,,,0.00,0.000000,,2013-09-01 11:12:00,
2013-09-01 04:22:00,55.0,43.0,-100.00,NW,316,7.0,9.0,65,0.00,,,0.00,0.000000,,2013-09-01 11:22:00,
2013-09-01 04:32:00,55.0,43.0,-100.00,NW,316,7.0,9.0,65,0.00,,,0.00,0.000000,,2013-09-01 11:32:00,
2013-09-01 04:42:00,55.0,43.0,-100.00,NW,316,7.0,9.0,65,0.00,,,0.00,0.000000,,2013-09-01 11:42:00,
2013-09-01 05:12:00,55.0,43.0,-100.00,NW,312,9.0,10.0,63,0.00,,,0.00,0.000000,,2013-09-01 12:12:00,
2013-09-01 05:22:00,55.0,43.0,-100.00,NW,312,9.0,10.0,63,0.00,,,0.00,0.000000,,2013-09-01 12:22:00,
2013-09-01 05:32:00,55.0,43.0,-100.00,NW,312,9.0,10.0,63,0.00,,,0.00,0.000000,,2013-09-01 12:32:00,
2013-09-01 05:42:00,55.0,43.0,-100.00,NW,312,9.0,10.0,63,0.00,,,0.00,0.000000,,2013-09-01 12:42:00,
2013-09-01 06:11:00,53.0,43.0,-100.00,NW,325,8.0,10.0,68,0.00,,,0.00,0.000000,,2013-09-01 13:11:00,
2013-09-01 06:21:00,53.0,43.0,-100.00,NW,325,8.0,10.0,68,0.00,,,0.00,0.000000,,2013-09-01 13:21:00,
2013-09-01 06:32:00,53.0,43.0,-100.00,NW,325,8.0,10.0,68,0.00,,,0.00,0.000000,,2013-09-01 13:32:00,
2013-09-01 06:42:00,53.0,43.0,-100.00,NW,325,8.0,10.0,68,0.00,,,0.00,0.000000,,2013-09-01 13:42:00,
2013-09-01 07:11:00,56.0,45.0,-100.00,NW,313,8.0,10.0,67,0.00,,,0.00,0.000000,,2013-09-01 14:11:00,
2013-09-01 07:21:00,56.0,45.0,-100.00,NW,313,8.0,10.0,67,0.00,,,0.00,0.000000,,2013-09-01 14:21:00,
2013-09-01 07:32:00,56.0,45.0,-100.00,NW,313,8.0,10.0,67,0.00,,,0.00,0.000000,,2013-09-01 14:32:00,
2013-09-01 07:42:00,56.0,45.0,-100.00,NW,313,8.0,10.0,67,0.00,,,0.00,0.000000,,2013-09-01 14:42:00,
2013-09-01 08:11:00,63.0,47.0,-100.00,NNW,327,8.0,11.0,55,0.00,,,0.00,0.000000,,2013-09-01 15:11:00,
2013-09-01 08:23:00,63.0,47.0,-100.00,NNW,327,8.0,11.0,55,0.00,,,0.00,0.000000,,2013-09-01 15:23:00,
2013-09-01 08:34:00,63.0,47.0,-100.00,NNW,327,8.0,11.0,55,0.00,,,0.00,0.000000,,2013-09-01 15:34:00,
2013-09-01 08:44:00,63.0,47.0,-100.00,NNW,327,8.0,11.0,55,0.00,,,0.00,0.000000,,2013-09-01 15:44:00,
2013-09-01 09:14:00,70.0,46.0,-100.00,NNW,327,7.0,12.0,43,0.00,,,0.00,98.000000,,2013-09-01 16:14:00,
2013-09-01 09:24:00,70.0,46.0,-100.00,NNW,327,7.0,12.0,43,0.00,,,0.00,98.000000,,2013-09-01 16:24:00,
2013-09-01 09:34:00,70.0,46.0,-100.00,NNW,327,7.0,12.0,43,0.00,,,0.00,98.000000,,2013-09-01 16:34:00,
2013-09-01 09:43:00,70.0,46.0,-100.00,NNW,327,7.0,12.0,43,0.00,,,0.00,98.000000,,2013-09-01 16:43:00,
2013-09-01 10:42:00,76.0,46.0,-100.00,NNW,330,7.0,13.0,34,0.00,,,0.00,240.000000,,2013-09-01 17:42:00,
2013-09-01 11:42:00,82.0,43.0,-100.00,NE,53,4.0,12.0,25,0.00,,,0.00,386.000000,,2013-09-01 18:42:00,
2013-09-01 12:42:00,85.0,42.0,-100.00,ENE,76,4.0,10.0,22,0.00,,,0.00,482.000000,,2013-09-01 19:42:00,
2013-09-01 13:42:00,87.0,41.0,-100.00,ENE,58,5.0,11.0,20,0.00,,,0.00,535.000000,,2013-09-01 20:42:00,
2013-09-01 14:43:00,91.0,42.0,-100.00,South,182,4.0,10.0,18,0.00,,,0.00,529.000000,,2013-09-01 21:43:00,
2013-09-01 15:14:00,91.0,40.0,-100.00,WSW,244,4.0,10.0,17,-99.99,,,0.00,468.000000,,2013-09-01 22:14:00,
2013-09-01 15:24:00,91.0,40.0,-100.00,WSW,244,4.0,10.0,17,-99.99,,,0.00,468.000000,,2013-09-01 22:24:00,
2013-09-01 15:34:00,91.0,40.0,-100.00,WSW,244,4.0,10.0,17,-99.99,,,0.00,468.000000,,2013-09-01 22:34:00,
2013-09-01 15:42:00,91.0,40.0,-100.00,WSW,244,4.0,10.0,17,-99.99,,,0.00,468.000000,,2013-09-01 22:42:00,
2013-09-01 16:12:00,92.0,41.0,-100.00,South,183,3.0,12.0,17,0.00,,,0.00,345.000000,,2013-09-01 23:12:00,
2013-09-01 16:23:00,92.0,41.0,-100.00,South,183,3.0,12.0,17,0.00,,,0.00,345.000000,,2013-09-01 23:23:00,
2013-09-01 16:34:00,92.0,41.0,-100.00,South,183,3.0,12.0,17,0.00,,,0.00,345.000000,,2013-09-01 23:34:00,
2013-09-01 16:42:00,92.0,41.0,-100.00,South,183,3.0,12.0,17,0.00,,,0.00,345.000000,,2013-09-01 23:42:00,
2013-09-01 17:11:00,91.0,40.0,-100.00,SSW,195,5.0,12.0,17,0.00,,,0.00,191.000000,,2013-09-02 00:11:00,
2013-09-01 17:22:00,91.0,40.0,-100.00,SSW,195,5.0,12.0,17,0.00,,,0.00,191.000000,,2013-09-02 00:22:00,
2013-09-01 17:33:00,91.0,40.0,-100.00,SSW,195,5.0,12.0,17,0.00,,,0.00,191.000000,,2013-09-02 00:33:00,
2013-09-01 17:42:00,91.0,40.0,-100.00,SSW,195,5.0,12.0,17,0.00,,,0.00,191.000000,,2013-09-02 00:42:00,
2013-09-01 18:12:00,92.0,41.0,-100.00,South,187,5.0,10.0,17,0.00,,,0.00,38.000000,,2013-09-02 01:12:00,
2013-09-01 18:21:00,92.0,41.0,-100.00,South,187,5.0,10.0,17,0.00,,,0.00,38.000000,,2013-09-02 01:21:00,
2013-09-01 18:32:00,92.0,41.0,-100.00,South,187,5.0,10.0,17,0.00,,,0.00,38.000000,,2013-09-02 01:32:00,
2013-09-01 18:42:00,92.0,41.0,-100.00,South,187,5.0,10.0,17,0.00,,,0.00,38.000000,,2013-09-02 01:42:00,
2013-09-01 19:12:00,88.0,42.0,-100.00,SSW,208,7.0,11.0,20,-99.99,,,0.00,0.000000,,2013-09-02 02:12:00,
2013-09-01 19:22:00,88.0,42.0,-100.00,SSW,208,7.0,11.0,20,-99.99,,,0.00,0.000000,,2013-09-02 02:22:00,
2013-09-01 19:33:00,88.0,42.0,-100.00,SSW,208,7.0,11.0,20,-99.99,,,0.00,0.000000,,2013-09-02 02:33:00,
2013-09-01 19:42:00,88.0,42.0,-100.00,SSW,208,7.0,11.0,20,-99.99,,,0.00,0.000000,,2013-09-02 02:42:00,
2013-09-01 20:11:00,77.0,40.0,-100.00,SW,229,7.0,11.0,27,0.00,,,0.00,0.000000,,2013-09-02 03:11:00,
2013-09-01 20:22:00,77.0,40.0,-100.00,SW,229,7.0,11.0,27,0.00,,,0.00,0.000000,,2013-09-02 03:22:00,
2013-09-01 20:34:00,77.0,40.0,-100.00,SW,229,7.0,11.0,27,0.00,,,0.00,0.000000,,2013-09-02 03:34:00,
2013-09-01 20:44:00,77.0,40.0,-100.00,SW,229,7.0,11.0,27,0.00,,,0.00,0.000000,,2013-09-02 03:44:00,
2013-09-01 21:14:00,72.0,40.0,-100.00,SW,223,5.0,9.0,31,0.00,,,0.00,0.000000,,2013-09-02 04:14:00,
2013-09-01 21:24:00,72.0,40.0,-100.00,SW,223,5.0,9.0,31,0.00,,,0.00,0.000000,,2013-09-02 04:24:00,
2013-09-01 21:35:00,72.0,40.0,-100.00,SW,223,5.0,9.0,31,0.00,,,0.00,0.000000,,2013-09-02 04:35:00,
2013-09-01 21:44:00,72.0,40.0,-100.00,SW,223,5.0,9.0,31,0.00,,,0.00,0.000000,,2013-09-02 04:44:00,
2013-09-01 22:13:00,68.0,38.0,-100.00,North,355,3.0,7.0,33,0.00,,,0.00,0.000000,,2013-09-02 05:13:00,
2013-09-01 22:23:00,68.0,38.0,-100.00,North,355,3.0,7.0,33,0.00,,,0.00,0.000000,,2013-09-02 05:23:00,
2013-09-01 22:34:00,68.0,38.0,-100.00,North,355,3.0,7.0,33,0.00,,,0.00,0.000000,,2013-09-02 05:34:00,
2013-09-01 22:43:00,68.0,38.0,-100.00,North,355,3.0,7.0,33,0.00,,,0.00,0.000000,,2013-09-02 05:43:00,
2013-09-01 23:12:00,66.0,39.0,-100.00,WNW,300,6.0,8.0,37,0.00,,,0.00,0.000000,,2013-09-02 06:12:00,
2013-09-01 23:22:00,66.0,39.0,-100.00,WNW,300,6.0,8.0,37,0.00,,,0.00,0.000000,,2013-09-02 06:22:00,
2013-09-01 23:32:00,66.0,39.0,-100.00,WNW,300,6.0,8.0,37,0.00,,,0.00,0.000000,,2013-09-02 06:32:00,
2013-09-01 23:43:00,66.0,39.0,-100.00,WNW,300,6.0,8.0,37,0.00,,,0.00,0.000000,,2013-09-02 06:43:00,